sensor_id;sensor_type;location;lat;lon;timestamp;P1;durP1;ratioP1;P2;durP2;ratioP2
11524;SDS011;5819;49.648;8.330;2023-02-18T00:01:37;8.50;;;7.60;;
11524;SDS011;5819;49.648;8.330;2023-02-18T00:04:05;8.05;;;7.35;;
11524;SDS011;5819;49.648;8.330;2023-02-18T00:06:34;8.10;;;7.30;;
11524;SDS011;5819;49.648;8.330;2023-02-18T00:09:04;8.05;;;7.28;;
11524;SDS011;5819;49.648;8.330;2023-02-18T00:11:34;7.97;;;7.28;;
11524;SDS011;5819;49.648;8.330;2023-02-18T00:14:04;8.00;;;7.30;;
11524;SDS011;5819;49.648;8.330;2023-02-18T00:16:33;8.50;;;7.70;;
11524;SDS011;5819;49.648;8.330;2023-02-18T00:19:02;8.02;;;7.32;;
11524;SDS011;5819;49.648;8.330;2023-02-18T00:21:31;7.72;;;7.03;;
11524;SDS011;5819;49.648;8.330;2023-02-18T00:24:00;7.50;;;6.35;;
11524;SDS011;5819;49.648;8.330;2023-02-18T00:26:29;7.65;;;6.80;;
11524;SDS011;5819;49.648;8.330;2023-02-18T00:28:57;7.07;;;6.38;;
11524;SDS011;5819;49.648;8.330;2023-02-18T00:31:26;7.75;;;7.00;;
11524;SDS011;5819;49.648;8.330;2023-02-18T00:34:01;9.82;;;7.50;;
11524;SDS011;5819;49.648;8.330;2023-02-18T00:36:32;8.30;;;7.50;;
11524;SDS011;5819;49.648;8.330;2023-02-18T00:39:03;7.95;;;7.25;;
11524;SDS011;5819;49.648;8.330;2023-02-18T00:41:33;7.93;;;7.22;;
11524;SDS011;5819;49.648;8.330;2023-02-18T00:44:02;8.18;;;7.28;;
11524;SDS011;5819;49.648;8.330;2023-02-18T00:46:30;8.18;;;7.38;;
11524;SDS011;5819;49.648;8.330;2023-02-18T00:48:59;8.43;;;7.60;;
11524;SDS011;5819;49.648;8.330;2023-02-18T00:51:27;7.90;;;7.20;;
11524;SDS011;5819;49.648;8.330;2023-02-18T00:53:56;8.07;;;7.30;;
11524;SDS011;5819;49.648;8.330;2023-02-18T00:56:24;8.35;;;7.55;;
11524;SDS011;5819;49.648;8.330;2023-02-18T00:58:53;9.48;;;7.93;;
11524;SDS011;5819;49.648;8.330;2023-02-18T01:01:21;9.25;;;8.13;;
11524;SDS011;5819;49.648;8.330;2023-02-18T01:03:49;9.00;;;8.20;;
11524;SDS011;5819;49.648;8.330;2023-02-18T01:06:17;9.27;;;8.48;;
11524;SDS011;5819;49.648;8.330;2023-02-18T01:08:47;9.75;;;8.85;;
11524;SDS011;5819;49.648;8.330;2023-02-18T01:11:15;9.70;;;8.85;;
11524;SDS011;5819;49.648;8.330;2023-02-18T01:13:44;9.82;;;8.93;;
11524;SDS011;5819;49.648;8.330;2023-02-18T01:16:14;11.27;;;10.18;;
11524;SDS011;5819;49.648;8.330;2023-02-18T01:18:44;10.73;;;9.73;;
11524;SDS011;5819;49.648;8.330;2023-02-18T01:21:13;10.23;;;9.32;;
11524;SDS011;5819;49.648;8.330;2023-02-18T01:23:42;10.38;;;9.38;;
11524;SDS011;5819;49.648;8.330;2023-02-18T01:26:10;10.30;;;9.23;;
11524;SDS011;5819;49.648;8.330;2023-02-18T01:28:38;9.95;;;8.90;;
11524;SDS011;5819;49.648;8.330;2023-02-18T01:31:08;10.93;;;9.93;;
11524;SDS011;5819;49.648;8.330;2023-02-18T01:33:40;9.88;;;8.98;;
11524;SDS011;5819;49.648;8.330;2023-02-18T01:36:08;10.32;;;9.20;;
11524;SDS011;5819;49.648;8.330;2023-02-18T01:38:37;9.82;;;8.82;;
11524;SDS011;5819;49.648;8.330;2023-02-18T01:41:05;9.18;;;8.38;;
11524;SDS011;5819;49.648;8.330;2023-02-18T01:43:33;9.57;;;8.73;;
11524;SDS011;5819;49.648;8.330;2023-02-18T01:46:03;10.23;;;9.10;;
11524;SDS011;5819;49.648;8.330;2023-02-18T01:48:40;9.20;;;8.40;;
11524;SDS011;5819;49.648;8.330;2023-02-18T01:51:12;9.57;;;8.52;;
11524;SDS011;5819;49.648;8.330;2023-02-18T01:53:45;9.35;;;8.55;;
11524;SDS011;5819;49.648;8.330;2023-02-18T01:56:18;9.93;;;8.10;;
11524;SDS011;5819;49.648;8.330;2023-02-18T01:58:51;9.15;;;7.97;;
11524;SDS011;5819;49.648;8.330;2023-02-18T02:01:21;9.07;;;8.10;;
11524;SDS011;5819;49.648;8.330;2023-02-18T02:03:51;8.65;;;7.82;;
11524;SDS011;5819;49.648;8.330;2023-02-18T02:06:20;7.70;;;7.07;;
11524;SDS011;5819;49.648;8.330;2023-02-18T02:08:50;8.93;;;8.10;;
11524;SDS011;5819;49.648;8.330;2023-02-18T02:14:29;7.85;;;6.93;;
11524;SDS011;5819;49.648;8.330;2023-02-18T02:24:28;9.20;;;8.15;;
11524;SDS011;5819;49.648;8.330;2023-02-18T02:27:25;10.05;;;9.10;;
11524;SDS011;5819;49.648;8.330;2023-02-18T02:30:21;10.52;;;9.40;;
11524;SDS011;5819;49.648;8.330;2023-02-18T02:36:25;11.93;;;10.73;;
11524;SDS011;5819;49.648;8.330;2023-02-18T02:38:59;10.73;;;9.73;;
11524;SDS011;5819;49.648;8.330;2023-02-18T02:41:38;11.90;;;10.35;;
11524;SDS011;5819;49.648;8.330;2023-02-18T02:44:18;11.73;;;10.55;;
11524;SDS011;5819;49.648;8.330;2023-02-18T02:46:50;11.77;;;10.10;;
11524;SDS011;5819;49.648;8.330;2023-02-18T02:49:25;12.20;;;11.07;;
11524;SDS011;5819;49.648;8.330;2023-02-18T02:52:04;10.13;;;9.13;;
11524;SDS011;5819;49.648;8.330;2023-02-18T02:54:36;9.70;;;8.57;;
11524;SDS011;5819;49.648;8.330;2023-02-18T02:57:08;9.07;;;8.25;;
11524;SDS011;5819;49.648;8.330;2023-02-18T03:00:05;8.88;;;8.07;;
11524;SDS011;5819;49.648;8.330;2023-02-18T03:02:38;8.60;;;7.80;;
11524;SDS011;5819;49.648;8.330;2023-02-18T03:05:20;10.68;;;8.02;;
11524;SDS011;5819;49.648;8.330;2023-02-18T03:08:09;9.80;;;8.80;;
11524;SDS011;5819;49.648;8.330;2023-02-18T03:10:48;9.32;;;8.43;;
11524;SDS011;5819;49.648;8.330;2023-02-18T03:13:27;9.30;;;8.30;;
11524;SDS011;5819;49.648;8.330;2023-02-18T03:16:06;11.63;;;8.95;;
11524;SDS011;5819;49.648;8.330;2023-02-18T03:18:42;10.80;;;9.68;;
11524;SDS011;5819;49.648;8.330;2023-02-18T03:21:15;12.35;;;9.23;;
11524;SDS011;5819;49.648;8.330;2023-02-18T03:23:52;11.80;;;9.77;;
11524;SDS011;5819;49.648;8.330;2023-02-18T03:26:25;9.80;;;8.80;;
11524;SDS011;5819;49.648;8.330;2023-02-18T03:28:58;10.00;;;8.05;;
11524;SDS011;5819;49.648;8.330;2023-02-18T03:31:29;8.07;;;7.03;;
11524;SDS011;5819;49.648;8.330;2023-02-18T03:34:02;7.93;;;6.80;;
11524;SDS011;5819;49.648;8.330;2023-02-18T03:36:35;7.00;;;6.30;;
11524;SDS011;5819;49.648;8.330;2023-02-18T03:39:06;7.82;;;7.03;;
11524;SDS011;5819;49.648;8.330;2023-02-18T03:41:37;8.55;;;7.13;;
11524;SDS011;5819;49.648;8.330;2023-02-18T03:44:07;9.18;;;7.22;;
11524;SDS011;5819;49.648;8.330;2023-02-18T03:46:36;7.80;;;7.00;;
11524;SDS011;5819;49.648;8.330;2023-02-18T03:49:05;8.55;;;7.65;;
11524;SDS011;5819;49.648;8.330;2023-02-18T03:51:34;7.43;;;6.72;;
11524;SDS011;5819;49.648;8.330;2023-02-18T03:54:02;7.85;;;7.10;;
11524;SDS011;5819;49.648;8.330;2023-02-18T03:56:32;7.55;;;6.75;;
11524;SDS011;5819;49.648;8.330;2023-02-18T03:59:00;6.28;;;5.68;;
11524;SDS011;5819;49.648;8.330;2023-02-18T04:01:29;6.55;;;5.93;;
11524;SDS011;5819;49.648;8.330;2023-02-18T04:03:57;7.43;;;6.70;;
11524;SDS011;5819;49.648;8.330;2023-02-18T04:06:25;8.38;;;6.40;;
11524;SDS011;5819;49.648;8.330;2023-02-18T04:08:53;7.63;;;6.80;;
11524;SDS011;5819;49.648;8.330;2023-02-18T04:11:20;8.60;;;7.13;;
11524;SDS011;5819;49.648;8.330;2023-02-18T04:13:50;10.23;;;7.55;;
11524;SDS011;5819;49.648;8.330;2023-02-18T04:16:17;9.25;;;7.97;;
11524;SDS011;5819;49.648;8.330;2023-02-18T04:18:46;9.90;;;8.95;;
11524;SDS011;5819;49.648;8.330;2023-02-18T04:21:14;11.10;;;9.88;;
11524;SDS011;5819;49.648;8.330;2023-02-18T04:23:41;10.68;;;9.68;;
11524;SDS011;5819;49.648;8.330;2023-02-18T04:26:09;10.95;;;9.93;;
11524;SDS011;5819;49.648;8.330;2023-02-18T04:28:37;15.07;;;11.48;;
11524;SDS011;5819;49.648;8.330;2023-02-18T04:31:06;12.95;;;11.65;;
11524;SDS011;5819;49.648;8.330;2023-02-18T04:33:34;13.50;;;11.38;;
11524;SDS011;5819;49.648;8.330;2023-02-18T04:36:02;12.82;;;11.63;;
11524;SDS011;5819;49.648;8.330;2023-02-18T04:38:31;13.00;;;11.68;;
11524;SDS011;5819;49.648;8.330;2023-02-18T04:40:59;12.68;;;11.43;;
11524;SDS011;5819;49.648;8.330;2023-02-18T04:43:27;12.23;;;10.95;;
11524;SDS011;5819;49.648;8.330;2023-02-18T04:45:55;11.98;;;10.77;;
11524;SDS011;5819;49.648;8.330;2023-02-18T04:48:24;10.88;;;9.88;;
11524;SDS011;5819;49.648;8.330;2023-02-18T04:50:52;11.95;;;10.75;;
11524;SDS011;5819;49.648;8.330;2023-02-18T04:53:19;10.98;;;9.75;;
11524;SDS011;5819;49.648;8.330;2023-02-18T04:55:48;10.95;;;9.88;;
11524;SDS011;5819;49.648;8.330;2023-02-18T04:58:17;11.20;;;10.07;;
11524;SDS011;5819;49.648;8.330;2023-02-18T05:00:44;12.02;;;10.63;;
11524;SDS011;5819;49.648;8.330;2023-02-18T05:03:13;10.40;;;9.40;;
11524;SDS011;5819;49.648;8.330;2023-02-18T05:05:42;11.48;;;10.00;;
11524;SDS011;5819;49.648;8.330;2023-02-18T05:08:11;10.98;;;9.88;;
11524;SDS011;5819;49.648;8.330;2023-02-18T05:10:39;10.75;;;9.65;;
11524;SDS011;5819;49.648;8.330;2023-02-18T05:13:06;11.45;;;10.40;;
11524;SDS011;5819;49.648;8.330;2023-02-18T05:15:34;10.68;;;9.68;;
11524;SDS011;5819;49.648;8.330;2023-02-18T05:18:02;11.57;;;10.48;;
11524;SDS011;5819;49.648;8.330;2023-02-18T05:20:30;10.55;;;9.55;;
11524;SDS011;5819;49.648;8.330;2023-02-18T05:23:00;10.73;;;9.73;;
11524;SDS011;5819;49.648;8.330;2023-02-18T05:25:28;12.73;;;9.68;;
11524;SDS011;5819;49.648;8.330;2023-02-18T05:27:57;10.75;;;9.65;;
11524;SDS011;5819;49.648;8.330;2023-02-18T05:30:24;10.50;;;9.05;;
11524;SDS011;5819;49.648;8.330;2023-02-18T05:32:52;11.05;;;9.93;;
11524;SDS011;5819;49.648;8.330;2023-02-18T05:35:20;10.68;;;9.57;;
11524;SDS011;5819;49.648;8.330;2023-02-18T05:37:48;10.45;;;9.38;;
11524;SDS011;5819;49.648;8.330;2023-02-18T05:40:17;9.75;;;8.82;;
11524;SDS011;5819;49.648;8.330;2023-02-18T05:42:44;10.00;;;9.10;;
11524;SDS011;5819;49.648;8.330;2023-02-18T05:45:13;9.32;;;8.43;;
11524;SDS011;5819;49.648;8.330;2023-02-18T05:47:40;9.23;;;8.32;;
11524;SDS011;5819;49.648;8.330;2023-02-18T05:50:07;8.63;;;7.82;;
11524;SDS011;5819;49.648;8.330;2023-02-18T05:52:35;8.02;;;7.32;;
11524;SDS011;5819;49.648;8.330;2023-02-18T05:55:04;8.38;;;7.45;;
11524;SDS011;5819;49.648;8.330;2023-02-18T05:57:34;8.98;;;8.07;;
11524;SDS011;5819;49.648;8.330;2023-02-18T06:00:02;9.38;;;8.45;;
11524;SDS011;5819;49.648;8.330;2023-02-18T06:02:30;9.20;;;7.95;;
11524;SDS011;5819;49.648;8.330;2023-02-18T06:04:59;8.60;;;7.80;;
11524;SDS011;5819;49.648;8.330;2023-02-18T06:07:26;9.48;;;8.48;;
11524;SDS011;5819;49.648;8.330;2023-02-18T06:09:54;9.95;;;8.95;;
11524;SDS011;5819;49.648;8.330;2023-02-18T06:12:22;10.13;;;9.07;;
11524;SDS011;5819;49.648;8.330;2023-02-18T06:14:51;8.55;;;7.75;;
11524;SDS011;5819;49.648;8.330;2023-02-18T06:17:19;9.23;;;8.32;;
11524;SDS011;5819;49.648;8.330;2023-02-18T06:19:48;9.73;;;8.45;;
11524;SDS011;5819;49.648;8.330;2023-02-18T06:22:16;9.38;;;8.52;;
11524;SDS011;5819;49.648;8.330;2023-02-18T06:24:44;10.48;;;8.93;;
11524;SDS011;5819;49.648;8.330;2023-02-18T06:27:11;9.43;;;8.23;;
11524;SDS011;5819;49.648;8.330;2023-02-18T06:29:41;9.45;;;8.45;;
11524;SDS011;5819;49.648;8.330;2023-02-18T06:32:10;9.82;;;8.82;;
11524;SDS011;5819;49.648;8.330;2023-02-18T06:34:38;9.70;;;8.80;;
11524;SDS011;5819;49.648;8.330;2023-02-18T06:37:06;9.43;;;8.25;;
11524;SDS011;5819;49.648;8.330;2023-02-18T06:39:33;10.15;;;9.10;;
11524;SDS011;5819;49.648;8.330;2023-02-18T06:42:02;11.00;;;9.52;;
11524;SDS011;5819;49.648;8.330;2023-02-18T06:44:31;11.07;;;9.95;;
11524;SDS011;5819;49.648;8.330;2023-02-18T06:46:58;11.85;;;10.35;;
11524;SDS011;5819;49.648;8.330;2023-02-18T06:49:27;12.55;;;10.95;;
11524;SDS011;5819;49.648;8.330;2023-02-18T06:51:56;12.18;;;10.98;;
11524;SDS011;5819;49.648;8.330;2023-02-18T06:54:24;12.68;;;11.48;;
11524;SDS011;5819;49.648;8.330;2023-02-18T06:56:51;14.10;;;12.63;;
11524;SDS011;5819;49.648;8.330;2023-02-18T06:59:19;13.80;;;12.40;;
11524;SDS011;5819;49.648;8.330;2023-02-18T07:01:47;14.88;;;12.93;;
11524;SDS011;5819;49.648;8.330;2023-02-18T07:04:15;14.10;;;12.70;;
11524;SDS011;5819;49.648;8.330;2023-02-18T07:06:44;14.57;;;12.95;;
11524;SDS011;5819;49.648;8.330;2023-02-18T07:09:13;12.88;;;11.57;;
11524;SDS011;5819;49.648;8.330;2023-02-18T07:11:41;12.60;;;11.30;;
11524;SDS011;5819;49.648;8.330;2023-02-18T07:14:08;12.73;;;11.45;;
11524;SDS011;5819;49.648;8.330;2023-02-18T07:16:36;11.93;;;10.68;;
11524;SDS011;5819;49.648;8.330;2023-02-18T07:19:05;12.65;;;11.23;;
11524;SDS011;5819;49.648;8.330;2023-02-18T07:21:32;11.30;;;10.20;;
11524;SDS011;5819;49.648;8.330;2023-02-18T07:24:01;12.27;;;10.82;;
11524;SDS011;5819;49.648;8.330;2023-02-18T07:26:30;11.13;;;9.95;;
11524;SDS011;5819;49.648;8.330;2023-02-18T07:28:57;12.60;;;10.20;;
11524;SDS011;5819;49.648;8.330;2023-02-18T07:31:25;10.65;;;9.00;;
11524;SDS011;5819;49.648;8.330;2023-02-18T07:33:54;9.63;;;8.73;;
11524;SDS011;5819;49.648;8.330;2023-02-18T07:36:21;10.25;;;9.15;;
11524;SDS011;5819;49.648;8.330;2023-02-18T07:38:49;10.68;;;9.57;;
11524;SDS011;5819;49.648;8.330;2023-02-18T07:41:20;10.88;;;9.57;;
11524;SDS011;5819;49.648;8.330;2023-02-18T07:43:49;10.57;;;9.48;;
11524;SDS011;5819;49.648;8.330;2023-02-18T07:46:17;11.05;;;9.95;;
11524;SDS011;5819;49.648;8.330;2023-02-18T07:48:45;12.63;;;11.32;;
11524;SDS011;5819;49.648;8.330;2023-02-18T07:51:13;11.68;;;10.48;;
11524;SDS011;5819;49.648;8.330;2023-02-18T07:53:40;11.73;;;10.52;;
11524;SDS011;5819;49.648;8.330;2023-02-18T07:56:08;13.18;;;11.88;;
11524;SDS011;5819;49.648;8.330;2023-02-18T07:58:39;13.13;;;11.82;;
11524;SDS011;5819;49.648;8.330;2023-02-18T08:01:07;13.18;;;11.77;;
11524;SDS011;5819;49.648;8.330;2023-02-18T08:03:37;12.75;;;11.40;;
11524;SDS011;5819;49.648;8.330;2023-02-18T08:06:05;18.73;;;15.85;;
11524;SDS011;5819;49.648;8.330;2023-02-18T08:08:35;13.48;;;11.90;;
11524;SDS011;5819;49.648;8.330;2023-02-18T08:11:03;13.27;;;10.57;;
11524;SDS011;5819;49.648;8.330;2023-02-18T08:13:45;12.30;;;11.07;;
11524;SDS011;5819;49.648;8.330;2023-02-18T08:16:13;12.07;;;10.77;;
11524;SDS011;5819;49.648;8.330;2023-02-18T08:18:41;12.75;;;10.73;;
11524;SDS011;5819;49.648;8.330;2023-02-18T08:21:10;11.88;;;10.60;;
11524;SDS011;5819;49.648;8.330;2023-02-18T08:23:38;12.05;;;10.75;;
11524;SDS011;5819;49.648;8.330;2023-02-18T08:26:07;11.55;;;10.35;;
11524;SDS011;5819;49.648;8.330;2023-02-18T08:28:40;12.15;;;10.95;;
11524;SDS011;5819;49.648;8.330;2023-02-18T08:31:14;12.57;;;11.27;;
11524;SDS011;5819;49.648;8.330;2023-02-18T08:33:43;13.52;;;11.00;;
11524;SDS011;5819;49.648;8.330;2023-02-18T08:36:11;11.13;;;10.02;;
11524;SDS011;5819;49.648;8.330;2023-02-18T08:38:38;11.75;;;10.65;;
11524;SDS011;5819;49.648;8.330;2023-02-18T08:41:07;10.43;;;9.43;;
11524;SDS011;5819;49.648;8.330;2023-02-18T08:43:36;10.35;;;9.35;;
11524;SDS011;5819;49.648;8.330;2023-02-18T08:46:04;9.45;;;8.55;;
11524;SDS011;5819;49.648;8.330;2023-02-18T08:48:34;9.75;;;8.85;;
11524;SDS011;5819;49.648;8.330;2023-02-18T08:51:09;10.93;;;8.27;;
11524;SDS011;5819;49.648;8.330;2023-02-18T08:53:38;9.23;;;8.38;;
11524;SDS011;5819;49.648;8.330;2023-02-18T08:56:07;8.98;;;8.18;;
11524;SDS011;5819;49.648;8.330;2023-02-18T08:58:36;9.13;;;8.15;;
11524;SDS011;5819;49.648;8.330;2023-02-18T09:01:05;10.82;;;8.20;;
11524;SDS011;5819;49.648;8.330;2023-02-18T09:03:35;8.85;;;7.72;;
11524;SDS011;5819;49.648;8.330;2023-02-18T09:06:04;7.72;;;7.00;;
11524;SDS011;5819;49.648;8.330;2023-02-18T09:08:33;7.28;;;6.57;;
11524;SDS011;5819;49.648;8.330;2023-02-18T09:11:01;7.85;;;7.13;;
11524;SDS011;5819;49.648;8.330;2023-02-18T09:13:32;7.78;;;6.95;;
11524;SDS011;5819;49.648;8.330;2023-02-18T09:16:01;9.13;;;7.47;;
11524;SDS011;5819;49.648;8.330;2023-02-18T09:18:31;7.70;;;6.90;;
11524;SDS011;5819;49.648;8.330;2023-02-18T09:21:02;7.38;;;6.68;;
11524;SDS011;5819;49.648;8.330;2023-02-18T09:23:33;6.93;;;6.25;;
11524;SDS011;5819;49.648;8.330;2023-02-18T09:26:03;7.50;;;6.70;;
11524;SDS011;5819;49.648;8.330;2023-02-18T09:28:31;8.18;;;7.13;;
11524;SDS011;5819;49.648;8.330;2023-02-18T09:31:02;8.27;;;7.47;;
11524;SDS011;5819;49.648;8.330;2023-02-18T09:33:33;8.80;;;8.00;;
11524;SDS011;5819;49.648;8.330;2023-02-18T09:36:04;7.97;;;7.28;;
11524;SDS011;5819;49.648;8.330;2023-02-18T09:38:33;8.45;;;7.65;;
11524;SDS011;5819;49.648;8.330;2023-02-18T09:41:02;10.55;;;9.20;;
11524;SDS011;5819;49.648;8.330;2023-02-18T09:43:35;10.43;;;8.98;;
11524;SDS011;5819;49.648;8.330;2023-02-18T09:46:11;8.77;;;7.82;;
11524;SDS011;5819;49.648;8.330;2023-02-18T09:48:57;8.70;;;7.75;;
11524;SDS011;5819;49.648;8.330;2023-02-18T09:51:30;8.43;;;7.53;;
11524;SDS011;5819;49.648;8.330;2023-02-18T09:53:58;8.38;;;7.57;;
11524;SDS011;5819;49.648;8.330;2023-02-18T09:56:27;9.48;;;7.68;;
11524;SDS011;5819;49.648;8.330;2023-02-18T09:58:57;8.98;;;8.18;;
11524;SDS011;5819;49.648;8.330;2023-02-18T10:01:29;11.20;;;7.25;;
11524;SDS011;5819;49.648;8.330;2023-02-18T10:04:01;7.63;;;6.93;;
11524;SDS011;5819;49.648;8.330;2023-02-18T10:06:35;8.10;;;5.97;;
11524;SDS011;5819;49.648;8.330;2023-02-18T10:09:03;8.38;;;6.13;;
11524;SDS011;5819;49.648;8.330;2023-02-18T10:11:39;8.00;;;5.70;;
11524;SDS011;5819;49.648;8.330;2023-02-18T10:14:09;5.82;;;5.32;;
11524;SDS011;5819;49.648;8.330;2023-02-18T10:16:40;6.68;;;5.65;;
11524;SDS011;5819;49.648;8.330;2023-02-18T10:19:14;6.53;;;5.90;;
11524;SDS011;5819;49.648;8.330;2023-02-18T10:21:49;8.55;;;5.43;;
11524;SDS011;5819;49.648;8.330;2023-02-18T10:24:24;7.20;;;5.50;;
11524;SDS011;5819;49.648;8.330;2023-02-18T10:26:56;6.97;;;5.25;;
11524;SDS011;5819;49.648;8.330;2023-02-18T10:29:26;6.05;;;5.50;;
11524;SDS011;5819;49.648;8.330;2023-02-18T10:31:56;8.10;;;6.07;;
11524;SDS011;5819;49.648;8.330;2023-02-18T10:34:37;8.52;;;5.75;;
11524;SDS011;5819;49.648;8.330;2023-02-18T10:37:13;6.25;;;4.88;;
11524;SDS011;5819;49.648;8.330;2023-02-18T10:39:57;9.18;;;6.00;;
11524;SDS011;5819;49.648;8.330;2023-02-18T10:42:32;6.88;;;5.80;;
11524;SDS011;5819;49.648;8.330;2023-02-18T10:45:16;6.30;;;5.70;;
11524;SDS011;5819;49.648;8.330;2023-02-18T10:47:56;5.50;;;4.75;;
11524;SDS011;5819;49.648;8.330;2023-02-18T10:50:36;6.22;;;5.25;;
11524;SDS011;5819;49.648;8.330;2023-02-18T10:53:09;6.28;;;5.55;;
11524;SDS011;5819;49.648;8.330;2023-02-18T10:55:40;6.57;;;4.97;;
11524;SDS011;5819;49.648;8.330;2023-02-18T10:58:25;4.95;;;4.43;;
11524;SDS011;5819;49.648;8.330;2023-02-18T11:01:00;7.18;;;4.22;;
11524;SDS011;5819;49.648;8.330;2023-02-18T11:03:41;6.43;;;5.10;;
11524;SDS011;5819;49.648;8.330;2023-02-18T11:06:19;6.22;;;4.45;;
11524;SDS011;5819;49.648;8.330;2023-02-18T11:08:50;4.82;;;4.03;;
11524;SDS011;5819;49.648;8.330;2023-02-18T11:11:22;3.72;;;3.42;;
11524;SDS011;5819;49.648;8.330;2023-02-18T11:13:52;6.63;;;4.32;;
11524;SDS011;5819;49.648;8.330;2023-02-18T11:16:21;6.18;;;3.65;;
11524;SDS011;5819;49.648;8.330;2023-02-18T11:18:50;3.83;;;3.53;;
11524;SDS011;5819;49.648;8.330;2023-02-18T11:21:21;4.55;;;3.83;;
11524;SDS011;5819;49.648;8.330;2023-02-18T11:23:57;4.10;;;3.70;;
11524;SDS011;5819;49.648;8.330;2023-02-18T11:26:35;5.93;;;3.90;;
11524;SDS011;5819;49.648;8.330;2023-02-18T11:29:06;4.55;;;3.30;;
11524;SDS011;5819;49.648;8.330;2023-02-18T11:31:41;3.85;;;3.33;;
11524;SDS011;5819;49.648;8.330;2023-02-18T11:34:15;5.05;;;3.63;;
11524;SDS011;5819;49.648;8.330;2023-02-18T11:36:46;4.18;;;3.42;;
11524;SDS011;5819;49.648;8.330;2023-02-18T11:39:18;7.18;;;6.07;;
11524;SDS011;5819;49.648;8.330;2023-02-18T11:41:52;3.55;;;3.25;;
11524;SDS011;5819;49.648;8.330;2023-02-18T11:44:23;4.18;;;3.20;;
11524;SDS011;5819;49.648;8.330;2023-02-18T11:46:56;5.13;;;3.38;;
11524;SDS011;5819;49.648;8.330;2023-02-18T11:49:26;3.47;;;2.75;;
11524;SDS011;5819;49.648;8.330;2023-02-18T11:52:02;3.58;;;3.28;;
11524;SDS011;5819;49.648;8.330;2023-02-18T11:54:33;3.85;;;3.45;;
11524;SDS011;5819;49.648;8.330;2023-02-18T11:57:02;6.40;;;3.38;;
11524;SDS011;5819;49.648;8.330;2023-02-18T11:59:32;3.85;;;3.10;;
11524;SDS011;5819;49.648;8.330;2023-02-18T12:02:04;3.88;;;3.38;;
11524;SDS011;5819;49.648;8.330;2023-02-18T12:04:42;5.03;;;3.17;;
11524;SDS011;5819;49.648;8.330;2023-02-18T12:07:14;4.72;;;3.45;;
11524;SDS011;5819;49.648;8.330;2023-02-18T12:09:47;3.70;;;3.35;;
11524;SDS011;5819;49.648;8.330;2023-02-18T12:12:23;4.93;;;3.63;;
11524;SDS011;5819;49.648;8.330;2023-02-18T12:14:54;6.07;;;3.60;;
11524;SDS011;5819;49.648;8.330;2023-02-18T12:17:30;3.95;;;3.55;;
11524;SDS011;5819;49.648;8.330;2023-02-18T12:20:18;4.22;;;3.83;;
11524;SDS011;5819;49.648;8.330;2023-02-18T12:22:59;6.30;;;3.72;;
11524;SDS011;5819;49.648;8.330;2023-02-18T12:25:41;7.13;;;4.63;;
11524;SDS011;5819;49.648;8.330;2023-02-18T12:28:24;4.65;;;3.83;;
11524;SDS011;5819;49.648;8.330;2023-02-18T12:31:10;5.63;;;3.72;;
11524;SDS011;5819;49.648;8.330;2023-02-18T12:33:51;6.32;;;3.70;;
11524;SDS011;5819;49.648;8.330;2023-02-18T12:36:33;4.47;;;4.05;;
11524;SDS011;5819;49.648;8.330;2023-02-18T12:39:20;6.22;;;3.70;;
11524;SDS011;5819;49.648;8.330;2023-02-18T12:42:06;4.72;;;4.22;;
11524;SDS011;5819;49.648;8.330;2023-02-18T12:44:53;6.63;;;4.20;;
11524;SDS011;5819;49.648;8.330;2023-02-18T12:47:38;5.43;;;3.63;;
11524;SDS011;5819;49.648;8.330;2023-02-18T12:50:23;5.93;;;3.60;;
11524;SDS011;5819;49.648;8.330;2023-02-18T12:53:05;3.67;;;3.20;;
11524;SDS011;5819;49.648;8.330;2023-02-18T12:56:06;3.72;;;3.10;;
11524;SDS011;5819;49.648;8.330;2023-02-18T12:58:54;3.75;;;3.45;;
11524;SDS011;5819;49.648;8.330;2023-02-18T13:01:35;4.13;;;2.97;;
11524;SDS011;5819;49.648;8.330;2023-02-18T13:07:07;9.95;;;3.78;;
11524;SDS011;5819;49.648;8.330;2023-02-18T13:09:56;6.50;;;3.58;;
11524;SDS011;5819;49.648;8.330;2023-02-18T13:12:38;4.13;;;3.58;;
11524;SDS011;5819;49.648;8.330;2023-02-18T13:15:15;8.00;;;3.70;;
11524;SDS011;5819;49.648;8.330;2023-02-18T13:17:47;5.72;;;3.42;;
11524;SDS011;5819;49.648;8.330;2023-02-18T13:20:18;6.07;;;3.03;;
11524;SDS011;5819;49.648;8.330;2023-02-18T13:22:52;6.00;;;3.17;;
11524;SDS011;5819;49.648;8.330;2023-02-18T13:25:23;4.82;;;2.80;;
11524;SDS011;5819;49.648;8.330;2023-02-18T13:27:53;3.53;;;2.80;;
11524;SDS011;5819;49.648;8.330;2023-02-18T13:30:39;3.75;;;2.95;;
11524;SDS011;5819;49.648;8.330;2023-02-18T13:33:13;3.17;;;2.50;;
11524;SDS011;5819;49.648;8.330;2023-02-18T13:35:51;3.95;;;2.88;;
11524;SDS011;5819;49.648;8.330;2023-02-18T13:38:28;3.90;;;3.17;;
11524;SDS011;5819;49.648;8.330;2023-02-18T13:41:18;4.10;;;3.70;;
11524;SDS011;5819;49.648;8.330;2023-02-18T13:43:47;4.32;;;3.90;;
11524;SDS011;5819;49.648;8.330;2023-02-18T13:46:17;5.28;;;3.90;;
11524;SDS011;5819;49.648;8.330;2023-02-18T13:48:50;4.32;;;3.90;;
11524;SDS011;5819;49.648;8.330;2023-02-18T13:51:30;5.38;;;4.03;;
11524;SDS011;5819;49.648;8.330;2023-02-18T13:54:03;6.53;;;3.90;;
11524;SDS011;5819;49.648;8.330;2023-02-18T13:56:42;6.55;;;3.58;;
11524;SDS011;5819;49.648;8.330;2023-02-18T13:59:16;4.47;;;3.20;;
11524;SDS011;5819;49.648;8.330;2023-02-18T14:01:49;4.70;;;3.78;;
11524;SDS011;5819;49.648;8.330;2023-02-18T14:04:33;3.80;;;3.25;;
11524;SDS011;5819;49.648;8.330;2023-02-18T14:07:28;4.72;;;2.88;;
11524;SDS011;5819;49.648;8.330;2023-02-18T14:10:13;4.65;;;2.80;;
11524;SDS011;5819;49.648;8.330;2023-02-18T14:13:00;5.00;;;3.13;;
11524;SDS011;5819;49.648;8.330;2023-02-18T14:18:33;3.65;;;2.67;;
11524;SDS011;5819;49.648;8.330;2023-02-18T14:21:18;4.15;;;2.72;;
11524;SDS011;5819;49.648;8.330;2023-02-18T14:23:58;5.90;;;2.47;;
11524;SDS011;5819;49.648;8.330;2023-02-18T14:26:32;3.70;;;2.42;;
11524;SDS011;5819;49.648;8.330;2023-02-18T14:29:17;5.00;;;2.72;;
11524;SDS011;5819;49.648;8.330;2023-02-18T14:31:53;5.78;;;3.05;;
11524;SDS011;5819;49.648;8.330;2023-02-18T14:37:39;3.83;;;2.80;;
11524;SDS011;5819;49.648;8.330;2023-02-18T14:40:27;5.53;;;3.63;;
11524;SDS011;5819;49.648;8.330;2023-02-18T14:43:12;4.40;;;2.88;;
11524;SDS011;5819;49.648;8.330;2023-02-18T14:45:59;4.85;;;2.75;;
11524;SDS011;5819;49.648;8.330;2023-02-18T14:48:44;4.35;;;2.80;;
11524;SDS011;5819;49.648;8.330;2023-02-18T14:51:26;5.40;;;3.00;;
11524;SDS011;5819;49.648;8.330;2023-02-18T14:54:02;3.80;;;2.25;;
11524;SDS011;5819;49.648;8.330;2023-02-18T14:56:36;3.95;;;2.45;;
11524;SDS011;5819;49.648;8.330;2023-02-18T14:59:06;4.13;;;2.97;;
11524;SDS011;5819;49.648;8.330;2023-02-18T15:01:35;4.72;;;2.83;;
11524;SDS011;5819;49.648;8.330;2023-02-18T15:04:05;3.58;;;2.75;;
11524;SDS011;5819;49.648;8.330;2023-02-18T15:06:33;3.60;;;2.85;;
11524;SDS011;5819;49.648;8.330;2023-02-18T15:09:12;5.22;;;3.30;;
11524;SDS011;5819;49.648;8.330;2023-02-18T15:11:43;4.05;;;2.70;;
11524;SDS011;5819;49.648;8.330;2023-02-18T15:14:17;5.07;;;3.15;;
11524;SDS011;5819;49.648;8.330;2023-02-18T15:16:47;5.78;;;3.90;;
11524;SDS011;5819;49.648;8.330;2023-02-18T15:19:17;4.85;;;3.60;;
11524;SDS011;5819;49.648;8.330;2023-02-18T15:21:49;4.32;;;3.92;;
11524;SDS011;5819;49.648;8.330;2023-02-18T15:24:27;4.30;;;3.90;;
11524;SDS011;5819;49.648;8.330;2023-02-18T15:26:58;5.13;;;4.63;;
11524;SDS011;5819;49.648;8.330;2023-02-18T15:29:28;5.78;;;4.55;;
11524;SDS011;5819;49.648;8.330;2023-02-18T15:32:00;8.20;;;4.18;;
11524;SDS011;5819;49.648;8.330;2023-02-18T15:34:34;6.70;;;5.00;;
11524;SDS011;5819;49.648;8.330;2023-02-18T15:37:06;5.63;;;3.90;;
11524;SDS011;5819;49.648;8.330;2023-02-18T15:39:41;7.63;;;4.10;;
11524;SDS011;5819;49.648;8.330;2023-02-18T15:42:12;6.05;;;3.67;;
11524;SDS011;5819;49.648;8.330;2023-02-18T15:44:46;4.15;;;3.70;;
11524;SDS011;5819;49.648;8.330;2023-02-18T15:47:17;5.05;;;3.17;;
11524;SDS011;5819;49.648;8.330;2023-02-18T15:49:46;7.07;;;3.60;;